EKYT/AAL METAR and TAF weather

Enter ICAO airport designator
Station Type Date Time Source
EKYT METAR 2022/12/05 13:50 UTC NOAA

EKYT 051350Z 02008KT 9999 SCT009 OVC011 02/01 Q1025


Station Type Date Time Source
EKYT Decoded METAR 2022/12/05 13:50 UTC NOAA

Aalborg, Denmark (EKYT) 57-06N 009-51E 13M
Dec 05, 2022 - 08:50 AM EST / 2022.12.05 1350 UTC
Wind: from the NNE (020 degrees) at 9 MPH (8 KT):0
Visibility: greater than 7 mile(s):0
Sky conditions: overcast
Temperature: 35 F (2 C)
Windchill: 28 F (-2 C):1
Dew Point: 33 F (1 C)
Relative Humidity: 93%
Pressure (altimeter): 30.27 in. Hg (1025 hPa)
ob: EKYT 051350Z 02008KT 9999 SCT009 OVC011 02/01 Q1025
cycle: 14

Station Type Date Time Source
EKYT TAF 2022/12/05 12:57 UTC NOAA

TAF
AMD TAF
AMD EKYT 051254Z 0512/0612 04010KT 9999 BKN018
TEMPO 0512/0521 6000 BKN010
BECMG 0521/0524 36006KT

Example: see airport list